Time;durP1;ratioP1;P1;durP2;ratioP2;P2;SDS_P1;SDS_P2;PMS_P1;PMS_P2;Temp;Humidity;BMP_temperature;BMP_pressure;BME280_temperature;BME280_humidity;BME280_pressure;Samples;Min_cycle;Max_cycle;Signal;HPM_P1;HPM_P2
2022/10/24 00:07:17;;;;;;;62.00;40.70;;;;;;;9.74;86.62;98552.75;420941;1291;109733;-39
2022/10/24 00:17:20;;;;;;;65.30;39.60;;;;;;;9.73;86.81;98558.08;420856;1288;109008;-40
2022/10/24 00:27:24;;;;;;;56.10;39.00;;;;;;;9.79;86.99;98557.09;421125;1298;97876;-40
2022/10/24 00:37:27;;;;;;;61.20;38.20;;;;;;;9.83;87.32;98570.14;420767;1298;107669;-40
2022/10/24 00:47:31;;;;;;;55.30;35.70;;;;;;;9.88;87.33;98575.73;421168;1298;97883;-40
2022/10/24 00:57:39;;;;;;;55.50;37.00;;;;;;;9.89;87.30;98562.74;420775;1298;109740;-40
2022/10/24 01:07:42;;;;;;;51.90;33.90;;;;;;;9.87;87.54;98555.95;422224;1254;107782;-40
2022/10/24 01:17:49;;;;;;;53.70;33.70;;;;;;;9.96;87.80;98544.52;421966;1288;97876;-40
2022/10/24 01:27:59;;;;;;;47.10;32.50;;;;;;;10.07;87.93;98543.45;422210;1288;107333;-41
2022/10/24 01:38:02;;;;;;;46.50;29.70;;;;;;;10.12;87.90;98535.54;422092;1295;98418;-41
2022/10/24 01:48:11;;;;;;;46.10;33.10;;;;;;;10.17;88.04;98537.39;422152;1291;109173;-41
2022/10/24 01:58:14;;;;;;;45.40;30.20;;;;;;;10.21;88.28;98516.50;421736;1288;424556;-40
2022/10/24 02:08:23;;;;;;;48.50;30.50;;;;;;;10.25;88.70;98493.17;422121;1295;97527;-40
2022/10/24 02:18:27;;;;;;;47.80;31.60;;;;;;;10.34;88.73;98500.33;421885;1296;108895;-39
2022/10/24 02:28:33;;;;;;;43.90;30.90;;;;;;;10.32;88.62;98483.23;422311;1295;98210;-41
2022/10/24 02:38:38;;;;;;;43.10;29.20;;;;;;;10.35;88.85;98459.88;422445;1288;109888;-40
2022/10/24 02:48:43;;;;;;;38.70;26.40;;;;;;;10.45;89.24;98456.62;422025;1295;108937;-39
2022/10/24 02:58:46;;;;;;;37.00;24.40;;;;;;;10.71;89.82;98441.73;422119;1295;97711;-40
2022/10/24 03:08:50;;;;;;;31.10;21.10;;;;;;;10.95;90.00;98428.86;421930;1295;109269;-41
2022/10/24 03:18:54;;;;;;;20.70;15.60;;;;;;;11.22;90.16;98436.73;422045;1295;97518;-41
2022/10/24 03:28:57;;;;;;;22.80;14.40;;;;;;;11.56;90.37;98421.48;422275;1287;109848;-41
2022/10/24 03:39:01;;;;;;;19.80;13.80;;;;;;;11.77;90.29;98417.38;422078;1301;108593;-41
2022/10/24 03:49:05;;;;;;;14.40;11.50;;;;;;;11.96;90.17;98405.90;422500;1287;97272;-40
2022/10/24 03:59:09;;;;;;;15.60;10.40;;;;;;;12.13;90.13;98399.73;422183;1295;107390;-40
2022/10/24 04:09:13;;;;;;;13.50;9.80;;;;;;;12.27;90.07;98407.48;422170;1295;98053;-40
2022/10/24 04:19:17;;;;;;;12.20;8.60;;;;;;;12.38;90.00;98402.91;422253;1295;111500;-40
2022/10/24 04:29:20;;;;;;;10.60;8.10;;;;;;;12.50;89.93;98395.14;421797;1295;108189;-40
2022/10/24 04:39:24;;;;;;;10.70;7.40;;;;;;;12.63;89.92;98393.98;422148;1288;97905;-40
2022/10/24 04:49:28;;;;;;;14.40;7.20;;;;;;;12.77;89.87;98383.57;422162;1298;108626;-40
2022/10/24 04:59:31;;;;;;;14.20;6.90;;;;;;;12.85;89.61;98384.02;422180;1296;97972;-40
2022/10/24 05:09:35;;;;;;;9.20;7.00;;;;;;;12.86;89.40;98378.41;422094;1296;110539;-41
2022/10/24 05:19:38;;;;;;;12.80;8.80;;;;;;;12.89;89.29;98374.56;421899;1298;108895;-41
2022/10/24 05:29:42;;;;;;;11.20;7.90;;;;;;;12.93;89.06;98381.13;422075;1294;97916;-41
2022/10/24 05:39:46;;;;;;;10.50;7.30;;;;;;;12.95;89.02;98383.58;422275;1296;109604;-40
2022/10/24 05:49:49;;;;;;;11.50;6.80;;;;;;;13.00;89.02;98387.83;422005;1298;97911;-41
2022/10/24 05:59:52;;;;;;;10.40;7.90;;;;;;;13.08;88.92;98400.13;422216;1299;110530;-41
2022/10/24 06:09:56;;;;;;;9.50;6.30;;;;;;;13.15;88.81;98422.28;422147;1298;108241;-40
2022/10/24 06:20:00;;;;;;;11.50;7.60;;;;;;;13.22;88.72;98439.09;422247;1296;97497;-40
2022/10/24 06:30:06;;;;;;;9.70;7.00;;;;;;;13.28;88.65;98435.39;422035;1299;107754;-41
2022/10/24 06:40:10;;;;;;;9.80;5.80;;;;;;;13.34;88.62;98458.91;422174;1285;97480;-41
2022/10/24 06:50:14;;;;;;;9.70;7.70;;;;;;;13.37;88.46;98466.05;422368;1297;110262;-40
2022/10/24 07:00:18;;;;;;;9.80;7.20;;;;;;;13.38;88.52;98461.92;423635;1296;108355;-42
2022/10/24 07:10:21;;;;;;;10.20;7.90;;;;;;;13.41;88.46;98461.10;422602;1294;96703;-41
2022/10/24 07:20:24;;;;;;;12.80;8.00;;;;;;;13.52;88.44;98455.45;421838;1292;108237;-40
2022/10/24 07:30:28;;;;;;;12.40;7.70;;;;;;;13.77;88.46;98462.79;422089;1287;97906;-40
2022/10/24 07:40:32;;;;;;;14.30;7.50;;;;;;;14.07;88.47;98474.64;422838;1288;110797;-41
2022/10/24 07:50:40;;;;;;;11.40;6.60;;;;;;;14.41;88.26;98479.17;422547;1279;108125;-41
2022/10/24 08:00:44;;;;;;;12.40;6.90;;;;;;;15.03;88.29;98476.15;420765;1288;97264;-40
2022/10/24 08:10:49;;;;;;;11.10;7.70;;;;;;;15.33;87.76;98472.98;421248;1302;108513;-42
2022/10/24 08:21:04;;;;;;;13.80;6.50;;;;;;;15.56;87.44;98470.31;420856;1295;96682;-40
2022/10/24 08:31:12;;;;;;;9.30;6.20;;;;;;;15.63;86.94;98477.90;421073;1302;109279;-40
2022/10/24 08:41:19;;;;;;;8.00;6.30;;;;;;;15.58;86.82;98471.84;420817;1296;105777;-40
2022/10/24 08:51:41;;;;;;;10.00;6.90;;;;;;;15.65;86.75;98479.23;421295;1289;97907;-41
2022/10/24 09:11:50;;;;;;;10.70;5.90;;;;;;;16.06;85.96;98474.88;421921;1295;98190;-41
2022/10/24 09:21:57;;;;;;;7.80;6.40;;;;;;;16.44;86.06;98478.19;422186;1301;109033;-41
2022/10/24 09:32:02;;;;;;;9.30;5.40;;;;;;;17.12;85.64;98490.80;422160;1301;108805;-40
2022/10/24 09:42:10;;;;;;;9.00;6.00;;;;;;;17.52;85.06;98488.86;421965;1301;97688;-41
2022/10/24 09:52:15;;;;;;;6.10;4.90;;;;;;;17.69;84.27;98486.98;421683;1294;110392;-41
2022/10/24 10:02:23;;;;;;;8.50;5.20;;;;;;;17.73;83.87;98478.42;421824;1294;107740;-42
2022/10/24 10:12:33;;;;;;;9.60;5.80;;;;;;;17.59;83.61;98481.87;421903;1296;97705;-41
2022/10/24 10:22:37;;;;;;;10.70;5.60;;;;;;;17.66;83.34;98479.05;421555;1291;108674;-40
2022/10/24 10:32:46;;;;;;;6.70;4.60;;;;;;;18.08;83.02;98476.34;421913;1294;96781;-41
2022/10/24 10:42:51;;;;;;;;;;;;;;;18.52;82.45;98484.10;421920;1296;97517;-42
2022/10/24 10:52:59;;;;;;;6.90;4.30;;;;;;;18.84;81.84;98479.52;423030;1288;110993;-40
2022/10/24 11:03:11;;;;;;;9.90;4.50;;;;;;;19.07;81.01;98469.26;422262;1296;109909;-39
2022/10/24 11:13:16;;;;;;;5.20;4.30;;;;;;;19.20;80.39;98467.64;422457;1294;97882;-40
2022/10/24 11:23:23;;;;;;;8.80;4.20;;;;;;;19.27;79.87;98463.35;422142;1296;98017;-39
2022/10/24 11:33:32;;;;;;;9.80;3.70;;;;;;;19.49;79.33;98454.98;422228;1288;110343;-41
2022/10/24 11:43:37;;;;;;;8.90;5.00;;;;;;;19.90;78.64;98463.20;422149;1288;107546;-40
2022/10/24 11:53:47;;;;;;;9.50;6.40;;;;;;;19.99;77.57;98457.25;422182;1298;97909;-40
2022/10/24 12:04:07;;;;;;;5.40;3.70;;;;;;;19.78;76.92;98442.15;421845;1296;110144;-41
2022/10/24 12:14:35;;;;;;;6.80;3.60;;;;;;;19.39;76.73;98437.11;421738;1282;108580;-41
2022/10/24 12:24:40;;;;;;;7.90;4.40;;;;;;;19.22;76.44;98421.51;421983;1298;106780;-41
2022/10/24 12:34:43;;;;;;;5.80;3.50;;;;;;;19.21;75.96;98406.66;421860;1288;97874;-43
2022/10/24 12:45:30;;;;;;;7.30;4.00;;;;;;;19.26;76.01;98399.04;421996;1296;107745;-41
2022/10/24 12:56:11;;;;;;;6.30;4.90;;;;;;;19.26;75.69;98390.78;420962;1298;98055;-41
2022/10/24 13:06:24;;;;;;;8.10;4.70;;;;;;;19.15;75.56;98392.34;420873;1291;97931;-40
2022/10/24 13:16:30;;;;;;;6.50;5.10;;;;;;;18.96;75.33;98398.29;422205;1295;109193;-41
2022/10/24 13:26:36;;;;;;;6.00;4.50;;;;;;;18.74;75.15;98394.52;422030;1295;107998;-41
2022/10/24 13:36:42;;;;;;;8.10;4.90;;;;;;;18.68;75.25;98395.93;422118;1288;98575;-41
2022/10/24 13:46:47;;;;;;;11.40;4.90;;;;;;;18.76;75.40;98391.77;422048;1293;109035;-40
2022/10/24 13:56:56;;;;;;;10.60;6.30;;;;;;;18.79;75.13;98392.32;421720;1288;271742;-40
2022/10/24 14:07:00;;;;;;;11.50;4.90;;;;;;;18.90;75.17;98391.61;421993;1289;97498;-40
2022/10/24 14:17:07;;;;;;;8.50;5.00;;;;;;;18.98;74.94;98386.80;421693;1296;111701;-40
2022/10/24 14:27:12;;;;;;;8.80;5.80;;;;;;;18.90;75.00;98384.48;422000;1296;106989;-41
2022/10/24 14:37:18;;;;;;;7.90;4.90;;;;;;;18.78;74.72;98403.30;421949;1294;98568;-41
2022/10/24 14:47:26;;;;;;;8.20;6.00;;;;;;;18.52;74.65;98415.91;421777;1288;110027;-41
2022/10/24 14:57:29;;;;;;;11.60;6.40;;;;;;;18.23;74.73;98404.59;421882;1292;107492;-41
2022/10/24 15:07:33;;;;;;;8.00;6.50;;;;;;;17.93;75.29;98402.98;422000;1288;98683;-41
2022/10/24 15:17:39;;;;;;;24.10;10.50;;;;;;;17.61;75.47;98415.28;422093;1288;108010;-40
2022/10/24 15:27:44;;;;;;;15.80;8.90;;;;;;;17.28;75.95;98413.61;421786;1288;97478;-41
2022/10/24 15:37:52;;;;;;;13.40;9.90;;;;;;;16.94;76.07;98409.28;422229;1281;110257;-40
2022/10/24 15:47:56;;;;;;;15.20;9.00;;;;;;;16.66;76.66;98407.54;423095;1281;108485;-40
2022/10/24 15:58:00;;;;;;;25.50;18.20;;;;;;;16.44;77.03;98412.38;422372;1289;97519;-40
2022/10/24 16:08:05;;;;;;;18.20;13.50;;;;;;;16.23;77.28;98429.02;422445;1295;108177;-42
2022/10/24 16:18:11;;;;;;;20.90;14.30;;;;;;;16.03;77.61;98419.05;421931;1292;97297;-41
2022/10/24 16:38:20;;;;;;;26.80;17.40;;;;;;;15.63;78.24;98419.73;421987;1289;108297;-41
2022/10/24 16:48:25;;;;;;;29.10;19.40;;;;;;;15.47;78.43;98418.96;422282;1288;98008;-41
2022/10/24 16:58:29;;;;;;;28.30;17.60;;;;;;;15.29;78.69;98421.17;422247;1288;108567;-42
2022/10/24 17:08:33;;;;;;;26.40;17.40;;;;;;;15.21;79.11;98439.77;422166;1288;97894;-40
2022/10/24 17:18:38;;;;;;;32.10;18.40;;;;;;;15.12;79.28;98432.88;422089;1295;111155;-41
2022/10/24 17:28:43;;;;;;;27.90;16.40;;;;;;;15.07;79.40;98433.29;421706;1295;107415;-40
2022/10/24 17:38:46;;;;;;;22.60;16.90;;;;;;;15.02;79.60;98435.67;422328;1296;97867;-39
2022/10/24 17:48:50;;;;;;;20.40;14.90;;;;;;;14.96;80.03;98430.83;422215;1295;108452;-40
2022/10/24 17:58:53;;;;;;;24.70;16.30;;;;;;;14.88;80.06;98432.13;422119;1288;98167;-39
2022/10/24 18:08:57;;;;;;;27.60;15.00;;;;;;;14.81;80.32;98431.36;421683;1295;109820;-40
2022/10/24 18:19:00;;;;;;;19.70;12.80;;;;;;;14.77;80.63;98432.58;421958;1292;110444;-40
2022/10/24 18:29:04;;;;;;;22.60;15.10;;;;;;;14.80;80.75;98440.62;422127;1295;97494;-40
2022/10/24 18:39:08;;;;;;;20.40;13.80;;;;;;;14.84;80.78;98436.74;422189;1289;107999;-40
2022/10/24 18:59:15;;;;;;;30.30;15.90;;;;;;;14.75;80.89;98439.44;422002;1295;109896;-40
2022/10/24 19:09:20;;;;;;;26.60;14.80;;;;;;;14.75;81.23;98435.66;422059;1292;107281;-40
2022/10/24 19:19:24;;;;;;;26.20;15.00;;;;;;;14.77;81.39;98440.56;422006;1295;97880;-40
2022/10/24 19:29:28;;;;;;;26.10;16.00;;;;;;;14.79;81.51;98449.35;421735;1294;108207;-40
2022/10/24 19:39:31;;;;;;;28.40;16.60;;;;;;;14.84;81.46;98454.16;422043;1288;96659;-41
2022/10/24 19:49:37;;;;;;;25.00;16.90;;;;;;;14.63;81.39;98445.84;421993;1295;110403;-40
2022/10/24 19:59:40;;;;;;;19.00;14.60;;;;;;;14.57;81.93;98457.94;422346;1295;108729;-39
2022/10/24 20:09:44;;;;;;;27.10;15.90;;;;;;;14.57;82.06;98469.59;422346;1288;98223;-40
2022/10/24 20:19:48;;;;;;;21.20;14.20;;;;;;;14.57;82.31;98477.52;422216;1291;107254;-40
2022/10/24 20:29:52;;;;;;;21.60;15.10;;;;;;;14.50;82.35;98483.88;421909;1291;97915;-40
2022/10/24 20:39:55;;;;;;;20.00;14.90;;;;;;;14.43;82.58;98481.91;422085;1296;111018;-40
2022/10/24 20:49:59;;;;;;;20.00;14.50;;;;;;;14.34;82.82;98482.32;422166;1295;108392;-40
2022/10/24 21:00:03;;;;;;;20.40;15.10;;;;;;;14.30;83.02;98477.35;422116;1288;97857;-40
2022/10/24 21:10:06;;;;;;;21.00;14.70;;;;;;;14.27;83.02;98480.63;422329;1295;108140;-40
2022/10/24 21:20:10;;;;;;;23.20;15.90;;;;;;;14.18;83.35;98492.46;421984;1288;96624;-39
2022/10/24 21:30:15;;;;;;;29.50;18.20;;;;;;;14.18;83.68;98491.67;422183;1295;111446;-40
2022/10/24 21:40:19;;;;;;;24.90;17.30;;;;;;;14.16;83.84;98477.52;421883;1295;108596;-40
2022/10/24 21:50:23;;;;;;;26.60;16.00;;;;;;;14.15;83.97;98468.64;421776;1288;97902;-40
2022/10/24 22:00:27;;;;;;;29.30;20.10;;;;;;;14.07;84.22;98469.77;422124;1295;108304;-40
2022/10/24 22:10:30;;;;;;;20.10;14.50;;;;;;;14.09;84.48;98470.20;422271;1295;97477;-40
2022/10/24 22:20:34;;;;;;;19.80;13.70;;;;;;;14.09;84.51;98472.85;422150;1295;110568;-40
2022/10/24 22:30:36;;;;;;;24.50;15.30;;;;;;;14.06;84.74;98476.23;421865;1295;108554;-41
2022/10/24 22:40:41;;;;;;;22.40;14.90;;;;;;;14.06;85.00;98483.36;422003;1288;97914;-40
2022/10/24 22:50:50;;;;;;;24.40;17.40;;;;;;;14.08;84.91;98473.11;422022;1292;108730;-40
2022/10/24 23:00:53;;;;;;;;;;;;;;;13.91;85.16;98465.33;422348;1295;97906;-39
2022/10/24 23:10:57;;;;;;;25.50;17.60;;;;;;;13.88;85.60;98468.35;422364;1295;109858;-40
2022/10/24 23:31:07;;;;;;;29.10;18.30;;;;;;;13.80;85.78;98464.67;422287;1289;97909;-39
2022/10/24 23:41:12;;;;;;;26.10;18.00;;;;;;;13.84;85.85;98467.56;422065;1293;107996;-39
2022/10/24 23:51:17;;;;;;;26.70;18.00;;;;;;;13.71;85.81;98468.54;422201;1294;97477;-39
